sensor_id;sensor_type;location;lat;lon;timestamp;P1;durP1;ratioP1;P2;durP2;ratioP2
20734;SDS011;10528;52.124;5.196;2023-06-14T00:00:47;6.88;;;3.10;;
20734;SDS011;10528;52.124;5.196;2023-06-14T00:03:15;5.75;;;2.58;;
20734;SDS011;10528;52.124;5.196;2023-06-14T00:05:44;7.68;;;2.63;;
20734;SDS011;10528;52.124;5.196;2023-06-14T00:08:13;8.25;;;2.90;;
20734;SDS011;10528;52.124;5.196;2023-06-14T00:10:41;5.13;;;2.78;;
20734;SDS011;10528;52.124;5.196;2023-06-14T00:13:09;7.50;;;2.60;;
20734;SDS011;10528;52.124;5.196;2023-06-14T00:15:37;4.22;;;2.47;;
20734;SDS011;10528;52.124;5.196;2023-06-14T00:18:04;4.18;;;2.85;;
20734;SDS011;10528;52.124;5.196;2023-06-14T00:20:32;5.80;;;2.85;;
20734;SDS011;10528;52.124;5.196;2023-06-14T00:23:00;5.25;;;3.28;;
20734;SDS011;10528;52.124;5.196;2023-06-14T00:25:27;5.95;;;2.80;;
20734;SDS011;10528;52.124;5.196;2023-06-14T00:27:56;7.65;;;2.90;;
20734;SDS011;10528;52.124;5.196;2023-06-14T00:30:24;7.07;;;2.80;;
20734;SDS011;10528;52.124;5.196;2023-06-14T00:32:51;5.13;;;2.90;;
20734;SDS011;10528;52.124;5.196;2023-06-14T00:35:18;8.23;;;2.92;;
20734;SDS011;10528;52.124;5.196;2023-06-14T00:37:45;7.07;;;2.95;;
20734;SDS011;10528;52.124;5.196;2023-06-14T00:40:12;5.85;;;2.78;;
20734;SDS011;10528;52.124;5.196;2023-06-14T00:42:39;10.70;;;2.70;;
20734;SDS011;10528;52.124;5.196;2023-06-14T00:45:06;4.25;;;2.58;;
20734;SDS011;10528;52.124;5.196;2023-06-14T00:47:35;6.55;;;3.03;;
20734;SDS011;10528;52.124;5.196;2023-06-14T00:50:06;5.15;;;3.20;;
20734;SDS011;10528;52.124;5.196;2023-06-14T00:52:34;6.75;;;2.55;;
20734;SDS011;10528;52.124;5.196;2023-06-14T00:55:02;6.90;;;2.65;;
20734;SDS011;10528;52.124;5.196;2023-06-14T00:57:29;6.53;;;2.65;;
20734;SDS011;10528;52.124;5.196;2023-06-14T00:59:56;3.90;;;2.88;;
20734;SDS011;10528;52.124;5.196;2023-06-14T01:02:23;6.95;;;2.97;;
20734;SDS011;10528;52.124;5.196;2023-06-14T01:04:53;8.55;;;2.97;;
20734;SDS011;10528;52.124;5.196;2023-06-14T01:07:33;6.95;;;2.88;;
20734;SDS011;10528;52.124;5.196;2023-06-14T01:10:31;4.82;;;2.80;;
20734;SDS011;10528;52.124;5.196;2023-06-14T01:13:21;5.55;;;2.70;;
20734;SDS011;10528;52.124;5.196;2023-06-14T01:16:01;6.63;;;3.05;;
20734;SDS011;10528;52.124;5.196;2023-06-14T01:18:29;7.25;;;3.03;;
20734;SDS011;10528;52.124;5.196;2023-06-14T01:21:00;6.13;;;2.53;;
20734;SDS011;10528;52.124;5.196;2023-06-14T01:23:32;7.35;;;3.17;;
20734;SDS011;10528;52.124;5.196;2023-06-14T01:26:00;8.02;;;2.70;;
20734;SDS011;10528;52.124;5.196;2023-06-14T01:28:30;5.32;;;2.85;;
20734;SDS011;10528;52.124;5.196;2023-06-14T01:31:00;6.10;;;2.85;;
20734;SDS011;10528;52.124;5.196;2023-06-14T01:33:32;4.82;;;2.88;;
20734;SDS011;10528;52.124;5.196;2023-06-14T01:36:01;5.18;;;2.67;;
20734;SDS011;10528;52.124;5.196;2023-06-14T01:38:31;6.88;;;2.70;;
20734;SDS011;10528;52.124;5.196;2023-06-14T01:40:59;9.80;;;2.95;;
20734;SDS011;10528;52.124;5.196;2023-06-14T01:43:27;5.53;;;2.60;;
20734;SDS011;10528;52.124;5.196;2023-06-14T01:45:57;7.82;;;2.75;;
20734;SDS011;10528;52.124;5.196;2023-06-14T01:48:26;7.50;;;3.13;;
20734;SDS011;10528;52.124;5.196;2023-06-14T01:50:53;6.95;;;2.97;;
20734;SDS011;10528;52.124;5.196;2023-06-14T01:53:20;4.85;;;2.83;;
20734;SDS011;10528;52.124;5.196;2023-06-14T01:55:47;3.90;;;2.40;;
20734;SDS011;10528;52.124;5.196;2023-06-14T01:58:15;5.30;;;2.55;;
20734;SDS011;10528;52.124;5.196;2023-06-14T02:00:43;6.88;;;2.80;;
20734;SDS011;10528;52.124;5.196;2023-06-14T02:03:10;3.92;;;2.55;;
20734;SDS011;10528;52.124;5.196;2023-06-14T02:05:37;9.82;;;2.92;;
20734;SDS011;10528;52.124;5.196;2023-06-14T02:08:06;5.55;;;2.42;;
20734;SDS011;10528;52.124;5.196;2023-06-14T02:10:33;7.57;;;2.92;;
20734;SDS011;10528;52.124;5.196;2023-06-14T02:13:02;5.13;;;2.58;;
20734;SDS011;10528;52.124;5.196;2023-06-14T02:15:29;6.57;;;2.47;;
20734;SDS011;10528;52.124;5.196;2023-06-14T02:18:03;5.15;;;2.78;;
20734;SDS011;10528;52.124;5.196;2023-06-14T02:20:32;5.05;;;2.38;;
20734;SDS011;10528;52.124;5.196;2023-06-14T02:22:59;5.65;;;2.60;;
20734;SDS011;10528;52.124;5.196;2023-06-14T02:25:26;5.18;;;3.15;;
20734;SDS011;10528;52.124;5.196;2023-06-14T02:27:54;4.90;;;2.78;;
20734;SDS011;10528;52.124;5.196;2023-06-14T02:30:22;6.07;;;2.63;;
20734;SDS011;10528;52.124;5.196;2023-06-14T02:32:49;6.85;;;2.60;;
20734;SDS011;10528;52.124;5.196;2023-06-14T02:35:17;6.30;;;2.72;;
20734;SDS011;10528;52.124;5.196;2023-06-14T02:37:44;4.95;;;2.67;;
20734;SDS011;10528;52.124;5.196;2023-06-14T02:40:11;5.43;;;2.55;;
20734;SDS011;10528;52.124;5.196;2023-06-14T02:42:39;7.05;;;2.75;;
20734;SDS011;10528;52.124;5.196;2023-06-14T02:45:06;5.45;;;2.47;;
20734;SDS011;10528;52.124;5.196;2023-06-14T02:47:34;5.65;;;2.50;;
20734;SDS011;10528;52.124;5.196;2023-06-14T02:50:01;8.98;;;2.80;;
20734;SDS011;10528;52.124;5.196;2023-06-14T02:52:29;6.30;;;2.70;;
20734;SDS011;10528;52.124;5.196;2023-06-14T02:54:55;7.43;;;2.63;;
20734;SDS011;10528;52.124;5.196;2023-06-14T02:57:22;4.70;;;2.40;;
20734;SDS011;10528;52.124;5.196;2023-06-14T02:59:50;5.95;;;2.30;;
20734;SDS011;10528;52.124;5.196;2023-06-14T03:02:18;5.90;;;2.78;;
20734;SDS011;10528;52.124;5.196;2023-06-14T03:04:45;5.35;;;3.08;;
20734;SDS011;10528;52.124;5.196;2023-06-14T03:07:16;5.50;;;2.72;;
20734;SDS011;10528;52.124;5.196;2023-06-14T03:09:49;7.68;;;2.75;;
20734;SDS011;10528;52.124;5.196;2023-06-14T03:12:17;7.88;;;2.72;;
20734;SDS011;10528;52.124;5.196;2023-06-14T03:14:44;5.45;;;2.40;;
20734;SDS011;10528;52.124;5.196;2023-06-14T03:17:14;5.30;;;2.42;;
20734;SDS011;10528;52.124;5.196;2023-06-14T03:19:43;5.82;;;2.67;;
20734;SDS011;10528;52.124;5.196;2023-06-14T03:22:11;5.75;;;2.78;;
20734;SDS011;10528;52.124;5.196;2023-06-14T03:24:39;3.97;;;2.28;;
20734;SDS011;10528;52.124;5.196;2023-06-14T03:27:10;7.30;;;2.70;;
20734;SDS011;10528;52.124;5.196;2023-06-14T03:29:40;6.88;;;2.80;;
20734;SDS011;10528;52.124;5.196;2023-06-14T03:32:08;5.47;;;2.67;;
20734;SDS011;10528;52.124;5.196;2023-06-14T03:34:41;5.53;;;2.75;;
20734;SDS011;10528;52.124;5.196;2023-06-14T03:37:14;6.22;;;2.80;;
20734;SDS011;10528;52.124;5.196;2023-06-14T03:39:41;6.15;;;2.50;;
20734;SDS011;10528;52.124;5.196;2023-06-14T03:42:16;5.22;;;2.40;;
20734;SDS011;10528;52.124;5.196;2023-06-14T03:44:44;8.07;;;2.88;;
20734;SDS011;10528;52.124;5.196;2023-06-14T03:47:11;8.10;;;2.85;;
20734;SDS011;10528;52.124;5.196;2023-06-14T03:49:38;7.18;;;2.88;;
20734;SDS011;10528;52.124;5.196;2023-06-14T03:52:05;7.10;;;2.85;;
20734;SDS011;10528;52.124;5.196;2023-06-14T03:54:34;7.45;;;2.70;;
20734;SDS011;10528;52.124;5.196;2023-06-14T03:57:04;5.32;;;3.05;;
20734;SDS011;10528;52.124;5.196;2023-06-14T03:59:33;5.38;;;2.83;;
20734;SDS011;10528;52.124;5.196;2023-06-14T04:02:00;7.07;;;2.60;;
20734;SDS011;10528;52.124;5.196;2023-06-14T04:04:27;6.57;;;2.65;;
20734;SDS011;10528;52.124;5.196;2023-06-14T04:06:56;6.75;;;3.03;;
20734;SDS011;10528;52.124;5.196;2023-06-14T04:09:25;4.50;;;2.63;;
20734;SDS011;10528;52.124;5.196;2023-06-14T04:11:52;5.35;;;2.60;;
20734;SDS011;10528;52.124;5.196;2023-06-14T04:14:20;8.85;;;2.95;;
20734;SDS011;10528;52.124;5.196;2023-06-14T04:16:47;3.85;;;2.63;;
20734;SDS011;10528;52.124;5.196;2023-06-14T04:19:18;6.00;;;2.58;;
20734;SDS011;10528;52.124;5.196;2023-06-14T04:21:48;6.25;;;2.80;;
20734;SDS011;10528;52.124;5.196;2023-06-14T04:24:16;8.43;;;2.80;;
20734;SDS011;10528;52.124;5.196;2023-06-14T04:26:46;6.68;;;2.60;;
20734;SDS011;10528;52.124;5.196;2023-06-14T04:29:17;7.00;;;2.60;;
20734;SDS011;10528;52.124;5.196;2023-06-14T04:31:53;5.88;;;3.00;;
20734;SDS011;10528;52.124;5.196;2023-06-14T04:34:22;6.65;;;2.40;;
20734;SDS011;10528;52.124;5.196;2023-06-14T04:36:53;11.27;;;2.58;;
20734;SDS011;10528;52.124;5.196;2023-06-14T04:39:28;5.63;;;2.60;;
20734;SDS011;10528;52.124;5.196;2023-06-14T04:41:55;5.32;;;2.22;;
20734;SDS011;10528;52.124;5.196;2023-06-14T04:44:24;5.07;;;2.60;;
20734;SDS011;10528;52.124;5.196;2023-06-14T04:47:00;4.32;;;2.50;;
20734;SDS011;10528;52.124;5.196;2023-06-14T04:49:27;6.43;;;2.42;;
20734;SDS011;10528;52.124;5.196;2023-06-14T04:51:57;6.03;;;2.45;;
20734;SDS011;10528;52.124;5.196;2023-06-14T04:54:28;6.05;;;2.80;;
20734;SDS011;10528;52.124;5.196;2023-06-14T04:56:58;5.88;;;2.33;;
20734;SDS011;10528;52.124;5.196;2023-06-14T04:59:26;3.65;;;2.55;;
20734;SDS011;10528;52.124;5.196;2023-06-14T05:01:53;7.65;;;2.30;;
20734;SDS011;10528;52.124;5.196;2023-06-14T05:04:21;3.70;;;2.17;;
20734;SDS011;10528;52.124;5.196;2023-06-14T05:06:49;8.45;;;3.03;;
20734;SDS011;10528;52.124;5.196;2023-06-14T05:09:16;6.70;;;2.58;;
20734;SDS011;10528;52.124;5.196;2023-06-14T05:11:43;6.25;;;2.80;;
20734;SDS011;10528;52.124;5.196;2023-06-14T05:14:11;7.07;;;4.97;;
20734;SDS011;10528;52.124;5.196;2023-06-14T05:16:38;4.20;;;2.58;;
20734;SDS011;10528;52.124;5.196;2023-06-14T05:19:06;7.90;;;2.78;;
20734;SDS011;10528;52.124;5.196;2023-06-14T05:21:33;4.90;;;2.47;;
20734;SDS011;10528;52.124;5.196;2023-06-14T05:24:07;5.40;;;2.60;;
20734;SDS011;10528;52.124;5.196;2023-06-14T05:26:35;5.05;;;2.78;;
20734;SDS011;10528;52.124;5.196;2023-06-14T05:29:02;7.63;;;2.65;;
20734;SDS011;10528;52.124;5.196;2023-06-14T05:31:29;6.75;;;2.90;;
20734;SDS011;10528;52.124;5.196;2023-06-14T05:33:57;6.45;;;2.50;;
20734;SDS011;10528;52.124;5.196;2023-06-14T05:36:24;6.82;;;3.08;;
20734;SDS011;10528;52.124;5.196;2023-06-14T05:38:52;8.63;;;3.00;;
20734;SDS011;10528;52.124;5.196;2023-06-14T05:41:24;8.25;;;3.35;;
20734;SDS011;10528;52.124;5.196;2023-06-14T05:43:55;4.88;;;2.30;;
20734;SDS011;10528;52.124;5.196;2023-06-14T05:46:23;5.22;;;2.25;;
20734;SDS011;10528;52.124;5.196;2023-06-14T05:48:52;7.10;;;2.50;;
20734;SDS011;10528;52.124;5.196;2023-06-14T05:51:19;12.18;;;2.92;;
20734;SDS011;10528;52.124;5.196;2023-06-14T05:53:46;7.80;;;2.47;;
20734;SDS011;10528;52.124;5.196;2023-06-14T05:56:17;8.13;;;2.45;;
20734;SDS011;10528;52.124;5.196;2023-06-14T05:58:45;5.93;;;2.88;;
20734;SDS011;10528;52.124;5.196;2023-06-14T06:01:13;5.60;;;2.63;;
20734;SDS011;10528;52.124;5.196;2023-06-14T06:03:41;4.75;;;2.55;;
20734;SDS011;10528;52.124;5.196;2023-06-14T06:06:12;4.22;;;2.47;;
20734;SDS011;10528;52.124;5.196;2023-06-14T06:08:39;5.63;;;2.47;;
20734;SDS011;10528;52.124;5.196;2023-06-14T06:11:07;4.50;;;2.60;;
20734;SDS011;10528;52.124;5.196;2023-06-14T06:13:34;4.88;;;2.65;;
20734;SDS011;10528;52.124;5.196;2023-06-14T06:16:02;5.07;;;2.65;;
20734;SDS011;10528;52.124;5.196;2023-06-14T06:18:30;7.32;;;2.78;;
20734;SDS011;10528;52.124;5.196;2023-06-14T06:20:57;6.03;;;2.33;;
20734;SDS011;10528;52.124;5.196;2023-06-14T06:23:24;5.38;;;2.38;;
20734;SDS011;10528;52.124;5.196;2023-06-14T06:25:51;3.83;;;2.40;;
20734;SDS011;10528;52.124;5.196;2023-06-14T06:28:18;3.53;;;2.50;;
20734;SDS011;10528;52.124;5.196;2023-06-14T06:30:45;5.32;;;2.42;;
20734;SDS011;10528;52.124;5.196;2023-06-14T06:33:12;4.05;;;2.38;;
20734;SDS011;10528;52.124;5.196;2023-06-14T06:35:40;5.13;;;2.65;;
20734;SDS011;10528;52.124;5.196;2023-06-14T06:38:07;11.02;;;2.65;;
20734;SDS011;10528;52.124;5.196;2023-06-14T06:40:36;4.35;;;2.30;;
20734;SDS011;10528;52.124;5.196;2023-06-14T06:43:03;6.88;;;2.85;;
20734;SDS011;10528;52.124;5.196;2023-06-14T06:45:37;6.50;;;2.72;;
20734;SDS011;10528;52.124;5.196;2023-06-14T06:48:04;5.80;;;2.38;;
20734;SDS011;10528;52.124;5.196;2023-06-14T06:50:31;8.13;;;2.75;;
20734;SDS011;10528;52.124;5.196;2023-06-14T06:52:59;2.85;;;2.30;;
20734;SDS011;10528;52.124;5.196;2023-06-14T06:55:26;6.22;;;2.40;;
20734;SDS011;10528;52.124;5.196;2023-06-14T06:57:52;6.45;;;2.42;;
20734;SDS011;10528;52.124;5.196;2023-06-14T07:00:20;3.30;;;2.10;;
20734;SDS011;10528;52.124;5.196;2023-06-14T07:02:47;5.85;;;2.55;;
20734;SDS011;10528;52.124;5.196;2023-06-14T07:05:14;6.13;;;2.40;;
20734;SDS011;10528;52.124;5.196;2023-06-14T07:07:42;7.78;;;3.67;;
20734;SDS011;10528;52.124;5.196;2023-06-14T07:10:09;4.60;;;2.50;;
20734;SDS011;10528;52.124;5.196;2023-06-14T07:12:36;6.18;;;2.80;;
20734;SDS011;10528;52.124;5.196;2023-06-14T07:15:08;5.55;;;2.78;;
20734;SDS011;10528;52.124;5.196;2023-06-14T07:17:36;6.88;;;2.65;;
20734;SDS011;10528;52.124;5.196;2023-06-14T07:20:03;5.45;;;2.88;;
20734;SDS011;10528;52.124;5.196;2023-06-14T07:22:34;3.53;;;2.72;;
20734;SDS011;10528;52.124;5.196;2023-06-14T07:25:01;4.80;;;2.35;;
20734;SDS011;10528;52.124;5.196;2023-06-14T07:27:29;6.07;;;2.22;;
20734;SDS011;10528;52.124;5.196;2023-06-14T07:29:56;9.05;;;2.42;;
20734;SDS011;10528;52.124;5.196;2023-06-14T07:32:22;4.75;;;3.05;;
20734;SDS011;10528;52.124;5.196;2023-06-14T07:34:50;5.93;;;2.50;;
20734;SDS011;10528;52.124;5.196;2023-06-14T07:37:17;5.18;;;3.10;;
20734;SDS011;10528;52.124;5.196;2023-06-14T07:39:44;9.45;;;2.90;;
20734;SDS011;10528;52.124;5.196;2023-06-14T07:42:11;3.53;;;2.15;;
20734;SDS011;10528;52.124;5.196;2023-06-14T07:44:37;6.13;;;2.38;;
20734;SDS011;10528;52.124;5.196;2023-06-14T07:47:05;5.43;;;2.33;;
20734;SDS011;10528;52.124;5.196;2023-06-14T07:49:32;9.15;;;2.60;;
20734;SDS011;10528;52.124;5.196;2023-06-14T07:51:58;4.50;;;2.40;;
20734;SDS011;10528;52.124;5.196;2023-06-14T07:54:25;4.60;;;2.03;;
20734;SDS011;10528;52.124;5.196;2023-06-14T07:56:53;9.85;;;2.33;;
20734;SDS011;10528;52.124;5.196;2023-06-14T07:59:22;3.83;;;2.30;;
20734;SDS011;10528;52.124;5.196;2023-06-14T08:01:48;5.97;;;2.75;;
20734;SDS011;10528;52.124;5.196;2023-06-14T08:04:15;3.30;;;2.20;;
20734;SDS011;10528;52.124;5.196;2023-06-14T08:06:42;4.00;;;2.08;;
20734;SDS011;10528;52.124;5.196;2023-06-14T08:09:12;5.57;;;2.17;;
20734;SDS011;10528;52.124;5.196;2023-06-14T08:11:39;6.80;;;2.42;;
20734;SDS011;10528;52.124;5.196;2023-06-14T08:14:06;5.57;;;2.33;;
20734;SDS011;10528;52.124;5.196;2023-06-14T08:16:34;3.72;;;2.25;;
20734;SDS011;10528;52.124;5.196;2023-06-14T08:19:01;7.13;;;2.50;;
20734;SDS011;10528;52.124;5.196;2023-06-14T08:21:28;5.22;;;2.03;;
20734;SDS011;10528;52.124;5.196;2023-06-14T08:23:57;4.10;;;1.80;;
20734;SDS011;10528;52.124;5.196;2023-06-14T08:26:24;3.92;;;1.98;;
20734;SDS011;10528;52.124;5.196;2023-06-14T08:28:57;3.75;;;1.80;;
20734;SDS011;10528;52.124;5.196;2023-06-14T08:31:24;2.03;;;1.38;;
20734;SDS011;10528;52.124;5.196;2023-06-14T08:33:51;4.22;;;1.88;;
20734;SDS011;10528;52.124;5.196;2023-06-14T08:36:18;6.53;;;2.13;;
20734;SDS011;10528;52.124;5.196;2023-06-14T08:38:46;5.05;;;1.88;;
20734;SDS011;10528;52.124;5.196;2023-06-14T08:41:12;4.40;;;1.88;;
20734;SDS011;10528;52.124;5.196;2023-06-14T08:43:52;10.43;;;2.03;;
20734;SDS011;10528;52.124;5.196;2023-06-14T08:46:19;3.30;;;1.77;;
20734;SDS011;10528;52.124;5.196;2023-06-14T08:48:46;3.25;;;1.75;;
20734;SDS011;10528;52.124;5.196;2023-06-14T08:51:17;3.42;;;1.83;;
20734;SDS011;10528;52.124;5.196;2023-06-14T08:53:57;4.30;;;1.70;;
20734;SDS011;10528;52.124;5.196;2023-06-14T08:56:27;5.20;;;1.50;;
20734;SDS011;10528;52.124;5.196;2023-06-14T08:58:58;4.15;;;1.73;;
20734;SDS011;10528;52.124;5.196;2023-06-14T09:01:33;2.20;;;1.63;;
20734;SDS011;10528;52.124;5.196;2023-06-14T09:04:01;2.72;;;1.80;;
20734;SDS011;10528;52.124;5.196;2023-06-14T09:06:29;6.03;;;1.90;;
20734;SDS011;10528;52.124;5.196;2023-06-14T09:08:56;2.13;;;1.20;;
20734;SDS011;10528;52.124;5.196;2023-06-14T09:11:23;3.65;;;1.40;;
20734;SDS011;10528;52.124;5.196;2023-06-14T09:13:52;3.20;;;1.33;;
20734;SDS011;10528;52.124;5.196;2023-06-14T09:16:19;4.88;;;1.80;;
20734;SDS011;10528;52.124;5.196;2023-06-14T09:18:47;3.67;;;1.75;;
20734;SDS011;10528;52.124;5.196;2023-06-14T09:21:15;4.20;;;1.60;;
20734;SDS011;10528;52.124;5.196;2023-06-14T09:23:44;3.47;;;1.40;;
20734;SDS011;10528;52.124;5.196;2023-06-14T09:26:14;3.28;;;1.60;;
20734;SDS011;10528;52.124;5.196;2023-06-14T09:28:49;2.70;;;1.95;;
20734;SDS011;10528;52.124;5.196;2023-06-14T09:31:20;3.05;;;1.42;;
20734;SDS011;10528;52.124;5.196;2023-06-14T09:33:48;3.28;;;1.77;;
20734;SDS011;10528;52.124;5.196;2023-06-14T09:38:52;2.25;;;1.35;;
20734;SDS011;10528;52.124;5.196;2023-06-14T09:41:30;2.38;;;1.30;;
20734;SDS011;10528;52.124;5.196;2023-06-14T09:44:09;3.63;;;1.45;;
20734;SDS011;10528;52.124;5.196;2023-06-14T09:46:47;2.65;;;1.40;;
20734;SDS011;10528;52.124;5.196;2023-06-14T09:49:14;3.30;;;1.40;;
20734;SDS011;10528;52.124;5.196;2023-06-14T09:51:42;2.42;;;1.30;;
20734;SDS011;10528;52.124;5.196;2023-06-14T09:54:14;3.15;;;1.25;;
20734;SDS011;10528;52.124;5.196;2023-06-14T09:56:45;4.07;;;1.52;;
20734;SDS011;10528;52.124;5.196;2023-06-14T09:59:16;2.65;;;1.10;;
20734;SDS011;10528;52.124;5.196;2023-06-14T10:01:53;2.38;;;1.40;;
20734;SDS011;10528;52.124;5.196;2023-06-14T10:04:25;2.97;;;1.60;;
20734;SDS011;10528;52.124;5.196;2023-06-14T10:06:56;2.15;;;1.52;;
20734;SDS011;10528;52.124;5.196;2023-06-14T10:09:25;3.03;;;1.40;;
20734;SDS011;10528;52.124;5.196;2023-06-14T10:11:57;1.80;;;1.20;;
20734;SDS011;10528;52.124;5.196;2023-06-14T10:14:23;3.28;;;1.33;;
20734;SDS011;10528;52.124;5.196;2023-06-14T10:19:48;1.77;;;1.05;;
20734;SDS011;10528;52.124;5.196;2023-06-14T10:25:38;2.33;;;1.40;;
20734;SDS011;10528;52.124;5.196;2023-06-14T10:28:14;3.83;;;1.50;;
20734;SDS011;10528;52.124;5.196;2023-06-14T10:33:47;4.45;;;1.48;;
20734;SDS011;10528;52.124;5.196;2023-06-14T10:39:06;3.55;;;1.25;;
20734;SDS011;10528;52.124;5.196;2023-06-14T10:41:38;4.72;;;1.33;;
20734;SDS011;10528;52.124;5.196;2023-06-14T10:46:48;3.67;;;1.38;;
20734;SDS011;10528;52.124;5.196;2023-06-14T10:49:16;4.32;;;1.20;;
20734;SDS011;10528;52.124;5.196;2023-06-14T10:51:45;2.47;;;1.10;;
20734;SDS011;10528;52.124;5.196;2023-06-14T10:54:20;1.67;;;1.27;;
20734;SDS011;10528;52.124;5.196;2023-06-14T10:56:48;3.80;;;1.65;;
20734;SDS011;10528;52.124;5.196;2023-06-14T10:59:18;2.92;;;1.33;;
20734;SDS011;10528;52.124;5.196;2023-06-14T11:02:04;4.22;;;1.38;;
20734;SDS011;10528;52.124;5.196;2023-06-14T11:05:24;3.00;;;1.60;;
20734;SDS011;10528;52.124;5.196;2023-06-14T11:10:54;6.65;;;1.70;;
20734;SDS011;10528;52.124;5.196;2023-06-14T11:13:25;3.38;;;1.60;;
20734;SDS011;10528;52.124;5.196;2023-06-14T11:15:56;2.20;;;1.38;;
20734;SDS011;10528;52.124;5.196;2023-06-14T11:18:24;2.53;;;1.50;;
20734;SDS011;10528;52.124;5.196;2023-06-14T11:20:51;2.28;;;1.42;;
20734;SDS011;10528;52.124;5.196;2023-06-14T11:23:18;3.83;;;1.38;;
20734;SDS011;10528;52.124;5.196;2023-06-14T11:25:51;2.72;;;1.45;;
20734;SDS011;10528;52.124;5.196;2023-06-14T11:28:19;3.20;;;1.30;;
20734;SDS011;10528;52.124;5.196;2023-06-14T11:30:48;3.60;;;1.63;;
20734;SDS011;10528;52.124;5.196;2023-06-14T11:33:26;2.92;;;1.40;;
20734;SDS011;10528;52.124;5.196;2023-06-14T11:35:53;3.15;;;1.50;;
20734;SDS011;10528;52.124;5.196;2023-06-14T11:38:20;2.55;;;1.50;;
20734;SDS011;10528;52.124;5.196;2023-06-14T11:40:47;2.47;;;1.30;;
20734;SDS011;10528;52.124;5.196;2023-06-14T11:43:14;3.65;;;1.33;;
20734;SDS011;10528;52.124;5.196;2023-06-14T11:45:41;2.67;;;1.55;;
20734;SDS011;10528;52.124;5.196;2023-06-14T11:48:12;3.15;;;1.48;;
20734;SDS011;10528;52.124;5.196;2023-06-14T11:50:39;5.28;;;1.88;;
20734;SDS011;10528;52.124;5.196;2023-06-14T11:53:06;4.00;;;1.60;;
20734;SDS011;10528;52.124;5.196;2023-06-14T11:55:37;2.10;;;1.30;;
20734;SDS011;10528;52.124;5.196;2023-06-14T11:58:05;4.30;;;1.40;;
20734;SDS011;10528;52.124;5.196;2023-06-14T12:00:34;2.10;;;1.20;;
20734;SDS011;10528;52.124;5.196;2023-06-14T12:03:03;5.28;;;1.60;;
20734;SDS011;10528;52.124;5.196;2023-06-14T12:05:30;5.60;;;1.67;;
20734;SDS011;10528;52.124;5.196;2023-06-14T12:08:01;4.95;;;1.40;;
20734;SDS011;10528;52.124;5.196;2023-06-14T12:10:39;2.20;;;1.58;;
20734;SDS011;10528;52.124;5.196;2023-06-14T12:13:09;2.40;;;1.35;;
20734;SDS011;10528;52.124;5.196;2023-06-14T12:15:37;3.38;;;1.33;;
20734;SDS011;10528;52.124;5.196;2023-06-14T12:18:07;3.53;;;1.60;;
20734;SDS011;10528;52.124;5.196;2023-06-14T12:20:34;6.18;;;1.40;;
20734;SDS011;10528;52.124;5.196;2023-06-14T12:23:03;4.60;;;1.70;;
20734;SDS011;10528;52.124;5.196;2023-06-14T12:25:34;2.72;;;1.25;;
20734;SDS011;10528;52.124;5.196;2023-06-14T12:28:06;2.35;;;1.35;;
20734;SDS011;10528;52.124;5.196;2023-06-14T12:30:35;2.72;;;1.20;;
20734;SDS011;10528;52.124;5.196;2023-06-14T12:33:04;2.72;;;1.30;;
20734;SDS011;10528;52.124;5.196;2023-06-14T12:35:32;4.07;;;1.30;;
20734;SDS011;10528;52.124;5.196;2023-06-14T12:37:59;6.03;;;1.58;;
20734;SDS011;10528;52.124;5.196;2023-06-14T12:40:26;2.97;;;1.20;;
20734;SDS011;10528;52.124;5.196;2023-06-14T12:42:53;3.67;;;1.40;;
20734;SDS011;10528;52.124;5.196;2023-06-14T12:45:20;3.80;;;1.50;;
20734;SDS011;10528;52.124;5.196;2023-06-14T12:47:47;4.65;;;1.63;;
20734;SDS011;10528;52.124;5.196;2023-06-14T12:50:14;2.55;;;1.45;;
20734;SDS011;10528;52.124;5.196;2023-06-14T12:52:41;2.05;;;1.15;;
20734;SDS011;10528;52.124;5.196;2023-06-14T12:55:08;2.70;;;1.30;;
20734;SDS011;10528;52.124;5.196;2023-06-14T12:57:35;3.70;;;1.30;;
20734;SDS011;10528;52.124;5.196;2023-06-14T13:00:04;4.43;;;1.40;;
20734;SDS011;10528;52.124;5.196;2023-06-14T13:02:34;3.13;;;1.25;;
20734;SDS011;10528;52.124;5.196;2023-06-14T13:05:01;6.72;;;1.40;;
20734;SDS011;10528;52.124;5.196;2023-06-14T13:07:30;2.47;;;1.60;;
20734;SDS011;10528;52.124;5.196;2023-06-14T13:09:57;4.47;;;1.75;;
20734;SDS011;10528;52.124;5.196;2023-06-14T13:12:24;5.88;;;1.65;;
20734;SDS011;10528;52.124;5.196;2023-06-14T13:14:50;4.68;;;1.60;;
20734;SDS011;10528;52.124;5.196;2023-06-14T13:17:17;2.30;;;1.42;;
20734;SDS011;10528;52.124;5.196;2023-06-14T13:19:44;3.38;;;1.50;;
20734;SDS011;10528;52.124;5.196;2023-06-14T13:22:11;2.22;;;1.40;;
20734;SDS011;10528;52.124;5.196;2023-06-14T13:24:38;5.63;;;1.60;;
20734;SDS011;10528;52.124;5.196;2023-06-14T13:27:05;4.90;;;1.63;;
20734;SDS011;10528;52.124;5.196;2023-06-14T13:29:33;2.53;;;1.60;;
20734;SDS011;10528;52.124;5.196;2023-06-14T13:32:02;4.03;;;1.73;;
20734;SDS011;10528;52.124;5.196;2023-06-14T13:34:30;4.13;;;1.70;;
20734;SDS011;10528;52.124;5.196;2023-06-14T13:36:57;1.80;;;1.27;;
20734;SDS011;10528;52.124;5.196;2023-06-14T13:39:25;2.22;;;1.38;;
20734;SDS011;10528;52.124;5.196;2023-06-14T13:41:52;5.53;;;1.30;;
20734;SDS011;10528;52.124;5.196;2023-06-14T13:44:19;2.22;;;1.40;;
20734;SDS011;10528;52.124;5.196;2023-06-14T13:46:47;2.35;;;1.10;;
20734;SDS011;10528;52.124;5.196;2023-06-14T13:49:14;2.25;;;1.30;;
20734;SDS011;10528;52.124;5.196;2023-06-14T13:51:41;3.05;;;1.30;;
20734;SDS011;10528;52.124;5.196;2023-06-14T13:54:08;3.45;;;1.20;;
20734;SDS011;10528;52.124;5.196;2023-06-14T13:56:37;2.85;;;1.30;;
20734;SDS011;10528;52.124;5.196;2023-06-14T13:59:05;3.30;;;1.60;;
20734;SDS011;10528;52.124;5.196;2023-06-14T14:01:31;2.30;;;1.20;;
20734;SDS011;10528;52.124;5.196;2023-06-14T14:03:59;3.10;;;1.38;;
20734;SDS011;10528;52.124;5.196;2023-06-14T14:06:26;4.43;;;1.40;;
20734;SDS011;10528;52.124;5.196;2023-06-14T14:08:53;2.35;;;1.15;;
20734;SDS011;10528;52.124;5.196;2023-06-14T14:11:20;4.07;;;1.42;;
20734;SDS011;10528;52.124;5.196;2023-06-14T14:13:47;4.25;;;1.48;;
20734;SDS011;10528;52.124;5.196;2023-06-14T14:16:15;3.28;;;1.45;;
20734;SDS011;10528;52.124;5.196;2023-06-14T14:18:42;2.58;;;1.35;;
20734;SDS011;10528;52.124;5.196;2023-06-14T14:21:09;1.95;;;1.33;;
20734;SDS011;10528;52.124;5.196;2023-06-14T14:23:36;2.83;;;1.55;;
20734;SDS011;10528;52.124;5.196;2023-06-14T14:26:07;3.85;;;1.60;;
20734;SDS011;10528;52.124;5.196;2023-06-14T14:28:33;4.55;;;1.20;;
20734;SDS011;10528;52.124;5.196;2023-06-14T14:31:01;3.13;;;1.48;;
20734;SDS011;10528;52.124;5.196;2023-06-14T14:33:28;1.73;;;1.15;;
20734;SDS011;10528;52.124;5.196;2023-06-14T14:35:55;1.95;;;1.20;;
20734;SDS011;10528;52.124;5.196;2023-06-14T14:38:21;2.60;;;1.33;;
20734;SDS011;10528;52.124;5.196;2023-06-14T14:40:48;4.10;;;1.48;;
20734;SDS011;10528;52.124;5.196;2023-06-14T14:43:16;3.03;;;1.42;;
20734;SDS011;10528;52.124;5.196;2023-06-14T14:45:43;3.08;;;1.20;;
20734;SDS011;10528;52.124;5.196;2023-06-14T14:48:10;2.90;;;1.10;;
20734;SDS011;10528;52.124;5.196;2023-06-14T14:50:37;1.95;;;1.30;;
20734;SDS011;10528;52.124;5.196;2023-06-14T14:53:05;4.20;;;1.30;;
20734;SDS011;10528;52.124;5.196;2023-06-14T14:55:33;3.53;;;1.38;;
20734;SDS011;10528;52.124;5.196;2023-06-14T14:58:02;3.17;;;1.45;;
20734;SDS011;10528;52.124;5.196;2023-06-14T15:00:29;7.00;;;1.33;;
20734;SDS011;10528;52.124;5.196;2023-06-14T15:02:56;2.38;;;1.10;;
20734;SDS011;10528;52.124;5.196;2023-06-14T15:05:23;3.17;;;1.30;;
20734;SDS011;10528;52.124;5.196;2023-06-14T15:07:50;3.20;;;1.10;;
20734;SDS011;10528;52.124;5.196;2023-06-14T15:10:17;2.80;;;1.20;;
20734;SDS011;10528;52.124;5.196;2023-06-14T15:12:44;2.45;;;1.10;;
20734;SDS011;10528;52.124;5.196;2023-06-14T15:15:11;1.60;;;1.13;;
20734;SDS011;10528;52.124;5.196;2023-06-14T15:17:38;1.20;;;0.88;;